C.s.rainbow — 3EFB2 — position and weather

sailwx.info

Track history (hours):
 
Tides and Currents Weather Stations Pressure Air Temp Water Temp Dewpoint Dewpoint Depression Visibility Wind Speed Wind Dir Waves Ship Positions

C.s.rainbow

Last reported at 2015-Feb-16 00:33 UTC. Time now 2015-Mar-01 23:30 UTC.
Position S 32°42' W 071°38'.
Warning: this ship's position is 13 days out of date.

Length 190 m; draft 9.7 m.

Type: Cargo ship. MMSI: 371986000.

Date/timePositionNaut miles runAvg speedWind from/ knotsBaromVisibWave heightAir tempDewpointWater temp
2015-Feb-16 00:33S 32°42' W 071°38'6 2.6
2015-Feb-15 22:10S 32°45' W 071°31'0 0.0
2015-Feb-15 21:23S 32°45' W 071°31'0 0.0
2015-Feb-15 20:29S 32°45' W 071°31'0 0.0
2015-Feb-15 19:20S 32°45' W 071°31'0 0.0
2015-Feb-15 16:20S 32°45' W 071°31'0 0.0
2015-Feb-15 15:20S 32°45' W 071°31'0 0.0
2015-Feb-15 14:11S 32°45' W 071°31'0 0.1
2015-Feb-15 13:23S 32°45' W 071°31'2 0.1
2015-Feb-14 19:29S 32°45' W 071°29'0 0.0
2015-Feb-14 18:26S 32°45' W 071°29'0 0.0
2015-Feb-14 16:23S 32°45' W 071°29'0 0.1
2015-Feb-14 15:26S 32°45' W 071°29'1 1.2
2015-Feb-14 14:33S 32°45' W 071°31'0 0.1
2015-Feb-14 13:33S 32°45' W 071°30'0 0.0
2015-Feb-14 12:33S 32°45' W 071°30'0 0.0
2015-Feb-14 11:30S 32°45' W 071°30'0 0.0
2015-Feb-14 10:33S 32°45' W 071°30'0 0.0
2015-Feb-14 05:30S 32°45' W 071°30'0 0.0
2015-Feb-13 23:30S 32°45' W 071°30'0 0.0
2015-Feb-13 22:33S 32°45' W 071°30'0 0.0
2015-Feb-13 21:27S 32°45' W 071°30'0 0.0
2015-Feb-13 20:33S 32°45' W 071°30'0 0.0
2015-Feb-13 19:33S 32°45' W 071°30'1 1.0
2015-Feb-13 18:33S 32°45' W 071°30'0 0.3
2015-Feb-13 17:33S 32°45' W 071°30'0 0.0
2015-Feb-13 16:33S 32°45' W 071°30'0 0.0
2015-Feb-13 15:33S 32°45' W 071°30'0 0.0
2015-Feb-13 14:33S 32°45' W 071°30'0 0.0
2015-Feb-13 13:33S 32°45' W 071°30'0 0.0
2015-Feb-13 12:33S 32°45' W 071°30'0 0.0
2015-Feb-13 11:30S 32°45' W 071°30'0 0.0
2015-Feb-13 10:27S 32°45' W 071°30'0 0.0
2015-Feb-12 23:33S 32°45' W 071°30'0 0.0
2015-Feb-12 22:33S 32°45' W 071°30'1 1.0
2015-Feb-12 21:33S 32°45' W 071°30'0 0.0
2015-Feb-12 20:27S 32°45' W 071°30'0 0.0
2015-Feb-12 19:27S 32°45' W 071°30'0 0.0
2015-Feb-12 18:33S 32°45' W 071°30'0 0.0
2015-Feb-12 17:33S 32°45' W 071°30'0 0.0
2015-Feb-12 16:33S 32°45' W 071°30'0 0.0
2015-Feb-12 15:33S 32°45' W 071°30'0 0.0
2015-Feb-12 14:30S 32°45' W 071°30'0 0.0
2015-Feb-12 13:33S 32°45' W 071°30'0 0.0
2015-Feb-12 12:06S 32°45' W 071°30'0 0.0
2015-Feb-12 11:33S 32°45' W 071°30'0 0.0
2015-Feb-12 10:33S 32°45' W 071°30'0 0.0
2015-Feb-11 23:30S 32°45' W 071°30'0 0.0
2015-Feb-11 22:09S 32°45' W 071°30'0 0.0
2015-Feb-11 21:21S 32°45' W 071°30'0 0.0
2015-Feb-11 20:33S 32°45' W 071°30'0 0.0
2015-Feb-11 19:33S 32°45' W 071°30'0 0.0
2015-Feb-11 17:33S 32°45' W 071°30'0 0.0
2015-Feb-11 16:30S 32°45' W 071°30'0 0.0
2015-Feb-11 15:09S 32°45' W 071°30'0 0.0
2015-Feb-11 14:15S 32°45' W 071°30'0 0.0
2015-Feb-11 12:30S 32°45' W 071°30'0 0.0
2015-Feb-11 11:33S 32°45' W 071°30'0 0.1
2015-Feb-11 10:21S 32°45' W 071°30'0 0.0
2015-Feb-11 02:30S 32°44' W 071°30'0 0.1
2015-Feb-11 00:06S 32°45' W 071°30'0 0.1
2015-Feb-10 23:30S 32°45' W 071°30'0 0.0
2015-Feb-10 22:33S 32°45' W 071°30'0 0.0
2015-Feb-10 21:33S 32°45' W 071°30'0 0.0
2015-Feb-10 20:33S 32°45' W 071°30'0 0.0
2015-Feb-10 19:33S 32°45' W 071°30'0 0.0
2015-Feb-10 18:30S 32°45' W 071°30'0 0.0
2015-Feb-10 17:15S 32°45' W 071°30'0 0.0
2015-Feb-10 16:09S 32°45' W 071°30'0 0.1
2015-Feb-10 15:33S 32°45' W 071°30'0 0.0
2015-Feb-10 14:30S 32°45' W 071°30'0 0.0
2015-Feb-10 13:18S 32°45' W 071°30'0 0.0
2015-Feb-10 12:18S 32°45' W 071°30'0 0.1
2015-Feb-10 11:24S 32°45' W 071°30'0 0.0
2015-Feb-10 10:30S 32°44' W 071°30'0 0.0
2015-Feb-10 06:33S 32°44' W 071°30'0 0.0
2015-Feb-09 23:33S 32°45' W 071°30'0 0.0
2015-Feb-09 22:33S 32°45' W 071°30'0 0.0
2015-Feb-09 21:27S 32°45' W 071°30'0 0.0
2015-Feb-09 19:33S 32°45' W 071°30'0 0.0
2015-Feb-09 18:33S 32°45' W 071°30'0 0.0
2015-Feb-09 17:33S 32°45' W 071°30'0 0.0
2015-Feb-09 16:33S 32°45' W 071°30'1 1.4
2015-Feb-09 15:33S 32°45' W 071°32'5 4.5
2015-Feb-09 14:33S 32°45' W 071°37'1110.9
2015-Feb-09 13:33S 32°37' W 071°46'11 0.8
2015-Feb-08 23:19S 32°26' W 071°51'3 3.1
2015-Feb-08 22:19S 32°30' W 071°50'3 3.1
2015-Feb-08 21:24S 32°32' W 071°50'2 2.8
2015-Feb-08 20:31S 32°35' W 071°51'2 2.5
2015-Feb-08 19:33S 32°37' W 071°51'2 2.2
2015-Feb-08 18:32S 32°39' W 071°52'2 2.1
2015-Feb-08 17:33S 32°41' W 071°52'2 2.0
2015-Feb-08 16:33S 32°43' W 071°53'2 1.8
2015-Feb-08 15:33S 32°45' W 071°54'2 1.5
2015-Feb-08 14:33S 32°46' W 071°55'1 1.3
2015-Feb-08 13:33S 32°48' W 071°55'1 1.2
2015-Feb-08 12:33S 32°49' W 071°55'1 1.1
2015-Feb-08 11:34S 32°50' W 071°55'6 5.7
2015-Feb-08 10:33S 32°52' W 071°48'1212.3
2015-Feb-08 09:33S 32°59' W 071°36'3 2.9
2015-Feb-08 08:26S 33°02' W 071°38'0 0.0
2015-Feb-08 07:23S 33°02' W 071°38'0 0.0
2015-Feb-08 06:29S 33°02' W 071°38'0 0.0
2015-Feb-08 05:32S 33°02' W 071°38'0 0.0
2015-Feb-08 04:14S 33°02' W 071°38'0 0.0
2015-Feb-08 03:23S 33°02' W 071°38'0 0.0
2015-Feb-08 02:32S 33°02' W 071°38'0 0.0
2015-Feb-08 01:29S 33°02' W 071°38'0 0.0
2015-Feb-08 00:05S 33°02' W 071°38'0 0.0
2015-Feb-07 23:32S 33°02' W 071°38'0 0.0
2015-Feb-07 22:32S 33°02' W 071°38'0 0.0
2015-Feb-07 21:29S 33°02' W 071°38'0 0.0
2015-Feb-07 20:32S 33°02' W 071°38'0 0.0
2015-Feb-07 19:32S 33°02' W 071°38'0 0.0
2015-Feb-07 18:32S 33°02' W 071°38'0 0.0
2015-Feb-07 17:32S 33°02' W 071°38'0 0.0
2015-Feb-07 16:32S 33°02' W 071°38'0 0.0
2015-Feb-07 15:32S 33°02' W 071°38'0 0.0
2015-Feb-07 14:32S 33°02' W 071°38'0 0.0
2015-Feb-07 13:32S 33°02' W 071°38'0 0.0
2015-Feb-07 12:32S 33°02' W 071°38'0 0.0
2015-Feb-07 11:32S 33°02' W 071°38'0 0.0
2015-Feb-07 10:32S 33°02' W 071°38'1 0.3
2015-Feb-07 08:31S 33°02' W 071°37'2 0.2
2015-Feb-06 23:19S 33°01' W 071°35'0 0.1
2015-Feb-06 22:31S 33°01' W 071°35'0 0.1
2015-Feb-06 21:28S 33°01' W 071°35'0 0.2
2015-Feb-06 20:31S 33°01' W 071°35'0 0.0
2015-Feb-06 19:28S 33°01' W 071°35'0 0.0
2015-Feb-06 18:28S 33°01' W 071°35'0 0.0
2015-Feb-06 17:16S 33°01' W 071°35'0 0.0
2015-Feb-06 16:31S 33°01' W 071°35'0 0.0
2015-Feb-06 15:28S 33°01' W 071°35'0 0.1
2015-Feb-06 14:31S 33°01' W 071°35'0 0.0
2015-Feb-06 13:22S 33°01' W 071°35'0 0.0
2015-Feb-06 12:31S 33°01' W 071°35'0 0.0
2015-Feb-06 11:22S 33°01' W 071°35'0 0.0
2015-Feb-06 10:31S 33°01' W 071°35'0 0.0
2015-Feb-06 09:10S 33°01' W 071°35'3 0.8
2015-Feb-06 05:29S 32°59' W 071°38'1010.7
2015-Feb-06 04:33S 32°49' W 071°41'  
Track history (hours):
 
Tides and Currents Weather Stations Pressure Air Temp Water Temp Dewpoint Dewpoint Depression Visibility Wind Speed Wind Dir Waves Ship Positions

C.s.rainbow

Last reported at 2015-Feb-16 00:33 UTC. Time now 2015-Mar-01 23:30 UTC.
Position S 32°42' W 071°38'.
Warning: this ship's position is 13 days out of date.

Length 190 m; draft 9.7 m.

Type: Cargo ship. MMSI: 371986000.

Date/timePositionNaut miles runAvg speedWind from/ knotsBaromVisibWave heightAir tempDewpointWater temp
2015-Feb-16 00:33S 32°42' W 071°38'6 2.6
2015-Feb-15 22:10S 32°45' W 071°31'0 0.0
2015-Feb-15 21:23S 32°45' W 071°31'0 0.0
2015-Feb-15 20:29S 32°45' W 071°31'0 0.0
2015-Feb-15 19:20S 32°45' W 071°31'0 0.0
2015-Feb-15 16:20S 32°45' W 071°31'0 0.0
2015-Feb-15 15:20S 32°45' W 071°31'0 0.0
2015-Feb-15 14:11S 32°45' W 071°31'0 0.1
2015-Feb-15 13:23S 32°45' W 071°31'2 0.1
2015-Feb-14 19:29S 32°45' W 071°29'0 0.0
2015-Feb-14 18:26S 32°45' W 071°29'0 0.0
2015-Feb-14 16:23S 32°45' W 071°29'0 0.1
2015-Feb-14 15:26S 32°45' W 071°29'1 1.2
2015-Feb-14 14:33S 32°45' W 071°31'0 0.1
2015-Feb-14 13:33S 32°45' W 071°30'0 0.0
2015-Feb-14 12:33S 32°45' W 071°30'0 0.0
2015-Feb-14 11:30S 32°45' W 071°30'0 0.0
2015-Feb-14 10:33S 32°45' W 071°30'0 0.0
2015-Feb-14 05:30S 32°45' W 071°30'0 0.0
2015-Feb-13 23:30S 32°45' W 071°30'0 0.0
2015-Feb-13 22:33S 32°45' W 071°30'0 0.0
2015-Feb-13 21:27S 32°45' W 071°30'0 0.0
2015-Feb-13 20:33S 32°45' W 071°30'0 0.0
2015-Feb-13 19:33S 32°45' W 071°30'1 1.0
2015-Feb-13 18:33S 32°45' W 071°30'0 0.3
2015-Feb-13 17:33S 32°45' W 071°30'0 0.0
2015-Feb-13 16:33S 32°45' W 071°30'0 0.0
2015-Feb-13 15:33S 32°45' W 071°30'0 0.0
2015-Feb-13 14:33S 32°45' W 071°30'0 0.0
2015-Feb-13 13:33S 32°45' W 071°30'0 0.0
2015-Feb-13 12:33S 32°45' W 071°30'0 0.0
2015-Feb-13 11:30S 32°45' W 071°30'0 0.0
2015-Feb-13 10:27S 32°45' W 071°30'0 0.0
2015-Feb-12 23:33S 32°45' W 071°30'0 0.0
2015-Feb-12 22:33S 32°45' W 071°30'1 1.0
2015-Feb-12 21:33S 32°45' W 071°30'0 0.0
2015-Feb-12 20:27S 32°45' W 071°30'0 0.0
2015-Feb-12 19:27S 32°45' W 071°30'0 0.0
2015-Feb-12 18:33S 32°45' W 071°30'0 0.0
2015-Feb-12 17:33S 32°45' W 071°30'0 0.0
2015-Feb-12 16:33S 32°45' W 071°30'0 0.0
2015-Feb-12 15:33S 32°45' W 071°30'0 0.0
2015-Feb-12 14:30S 32°45' W 071°30'0 0.0
2015-Feb-12 13:33S 32°45' W 071°30'0 0.0
2015-Feb-12 12:06S 32°45' W 071°30'0 0.0
2015-Feb-12 11:33S 32°45' W 071°30'0 0.0
2015-Feb-12 10:33S 32°45' W 071°30'0 0.0
2015-Feb-11 23:30S 32°45' W 071°30'0 0.0
2015-Feb-11 22:09S 32°45' W 071°30'0 0.0
2015-Feb-11 21:21S 32°45' W 071°30'0 0.0
2015-Feb-11 20:33S 32°45' W 071°30'0 0.0
2015-Feb-11 19:33S 32°45' W 071°30'0 0.0
2015-Feb-11 17:33S 32°45' W 071°30'0 0.0
2015-Feb-11 16:30S 32°45' W 071°30'0 0.0
2015-Feb-11 15:09S 32°45' W 071°30'0 0.0
2015-Feb-11 14:15S 32°45' W 071°30'0 0.0
2015-Feb-11 12:30S 32°45' W 071°30'0 0.0
2015-Feb-11 11:33S 32°45' W 071°30'0 0.1
2015-Feb-11 10:21S 32°45' W 071°30'0 0.0
2015-Feb-11 02:30S 32°44' W 071°30'0 0.1
2015-Feb-11 00:06S 32°45' W 071°30'0 0.1
2015-Feb-10 23:30S 32°45' W 071°30'0 0.0
2015-Feb-10 22:33S 32°45' W 071°30'0 0.0
2015-Feb-10 21:33S 32°45' W 071°30'0 0.0
2015-Feb-10 20:33S 32°45' W 071°30'0 0.0
2015-Feb-10 19:33S 32°45' W 071°30'0 0.0
2015-Feb-10 18:30S 32°45' W 071°30'0 0.0
2015-Feb-10 17:15S 32°45' W 071°30'0 0.0
2015-Feb-10 16:09S 32°45' W 071°30'0 0.1
2015-Feb-10 15:33S 32°45' W 071°30'0 0.0
2015-Feb-10 14:30S 32°45' W 071°30'0 0.0
2015-Feb-10 13:18S 32°45' W 071°30'0 0.0
2015-Feb-10 12:18S 32°45' W 071°30'0 0.1
2015-Feb-10 11:24S 32°45' W 071°30'0 0.0
2015-Feb-10 10:30S 32°44' W 071°30'0 0.0
2015-Feb-10 06:33S 32°44' W 071°30'0 0.0
2015-Feb-09 23:33S 32°45' W 071°30'0 0.0
2015-Feb-09 22:33S 32°45' W 071°30'0 0.0
2015-Feb-09 21:27S 32°45' W 071°30'0 0.0
2015-Feb-09 19:33S 32°45' W 071°30'0 0.0
2015-Feb-09 18:33S 32°45' W 071°30'0 0.0
2015-Feb-09 17:33S 32°45' W 071°30'0 0.0
2015-Feb-09 16:33S 32°45' W 071°30'1 1.4
2015-Feb-09 15:33S 32°45' W 071°32'5 4.5
2015-Feb-09 14:33S 32°45' W 071°37'1110.9
2015-Feb-09 13:33S 32°37' W 071°46'11 0.8
2015-Feb-08 23:19S 32°26' W 071°51'3 3.1
2015-Feb-08 22:19S 32°30' W 071°50'3 3.1
2015-Feb-08 21:24S 32°32' W 071°50'2 2.8
2015-Feb-08 20:31S 32°35' W 071°51'2 2.5
2015-Feb-08 19:33S 32°37' W 071°51'2 2.2
2015-Feb-08 18:32S 32°39' W 071°52'2 2.1
2015-Feb-08 17:33S 32°41' W 071°52'2 2.0
2015-Feb-08 16:33S 32°43' W 071°53'2 1.8
2015-Feb-08 15:33S 32°45' W 071°54'2 1.5
2015-Feb-08 14:33S 32°46' W 071°55'1 1.3
2015-Feb-08 13:33S 32°48' W 071°55'1 1.2
2015-Feb-08 12:33S 32°49' W 071°55'1 1.1
2015-Feb-08 11:34S 32°50' W 071°55'6 5.7
2015-Feb-08 10:33S 32°52' W 071°48'1212.3
2015-Feb-08 09:33S 32°59' W 071°36'3 2.9
2015-Feb-08 08:26S 33°02' W 071°38'0 0.0
2015-Feb-08 07:23S 33°02' W 071°38'0 0.0
2015-Feb-08 06:29S 33°02' W 071°38'0 0.0
2015-Feb-08 05:32S 33°02' W 071°38'0 0.0
2015-Feb-08 04:14S 33°02' W 071°38'0 0.0
2015-Feb-08 03:23S 33°02' W 071°38'0 0.0
2015-Feb-08 02:32S 33°02' W 071°38'0 0.0
2015-Feb-08 01:29S 33°02' W 071°38'0 0.0
2015-Feb-08 00:05S 33°02' W 071°38'0 0.0
2015-Feb-07 23:32S 33°02' W 071°38'0 0.0
2015-Feb-07 22:32S 33°02' W 071°38'0 0.0
2015-Feb-07 21:29S 33°02' W 071°38'0 0.0
2015-Feb-07 20:32S 33°02' W 071°38'0 0.0
2015-Feb-07 19:32S 33°02' W 071°38'0 0.0
2015-Feb-07 18:32S 33°02' W 071°38'0 0.0
2015-Feb-07 17:32S 33°02' W 071°38'0 0.0
2015-Feb-07 16:32S 33°02' W 071°38'0 0.0
2015-Feb-07 15:32S 33°02' W 071°38'0 0.0
2015-Feb-07 14:32S 33°02' W 071°38'0 0.0
2015-Feb-07 13:32S 33°02' W 071°38'0 0.0
2015-Feb-07 12:32S 33°02' W 071°38'0 0.0
2015-Feb-07 11:32S 33°02' W 071°38'0 0.0
2015-Feb-07 10:32S 33°02' W 071°38'1 0.3
2015-Feb-07 08:31S 33°02' W 071°37'2 0.2
2015-Feb-06 23:19S 33°01' W 071°35'0 0.1
2015-Feb-06 22:31S 33°01' W 071°35'0 0.1
2015-Feb-06 21:28S 33°01' W 071°35'0 0.2
2015-Feb-06 20:31S 33°01' W 071°35'0 0.0
2015-Feb-06 19:28S 33°01' W 071°35'0 0.0
2015-Feb-06 18:28S 33°01' W 071°35'0 0.0
2015-Feb-06 17:16S 33°01' W 071°35'0 0.0
2015-Feb-06 16:31S 33°01' W 071°35'0 0.0
2015-Feb-06 15:28S 33°01' W 071°35'0 0.1
2015-Feb-06 14:31S 33°01' W 071°35'0 0.0
2015-Feb-06 13:22S 33°01' W 071°35'0 0.0
2015-Feb-06 12:31S 33°01' W 071°35'0 0.0
2015-Feb-06 11:22S 33°01' W 071°35'0 0.0
2015-Feb-06 10:31S 33°01' W 071°35'0 0.0
2015-Feb-06 09:10S 33°01' W 071°35'3 0.8
2015-Feb-06 05:29S 32°59' W 071°38'1010.7
2015-Feb-06 04:33S 32°49' W 071°41'  

Dump ship's entire track history